sensor_id;sensor_type;location;lat;lon;timestamp;P1;durP1;ratioP1;P2;durP2;ratioP2
55216;SDS011;41086;46.736;15.666;2023-06-04T00:01:58;33.17;;;10.55;;
55216;SDS011;41086;46.736;15.666;2023-06-04T00:04:25;18.20;;;10.20;;
55216;SDS011;41086;46.736;15.666;2023-06-04T00:06:52;14.23;;;9.77;;
55216;SDS011;41086;46.736;15.666;2023-06-04T00:09:20;14.32;;;9.68;;
55216;SDS011;41086;46.736;15.666;2023-06-04T00:11:46;17.70;;;9.52;;
55216;SDS011;41086;46.736;15.666;2023-06-04T00:14:14;14.18;;;9.43;;
55216;SDS011;41086;46.736;15.666;2023-06-04T00:16:41;15.50;;;8.98;;
55216;SDS011;41086;46.736;15.666;2023-06-04T00:21:35;14.23;;;9.10;;
55216;SDS011;41086;46.736;15.666;2023-06-04T00:24:02;14.45;;;9.07;;
55216;SDS011;41086;46.736;15.666;2023-06-04T00:28:55;15.25;;;9.27;;
55216;SDS011;41086;46.736;15.666;2023-06-04T00:31:22;13.57;;;9.73;;
55216;SDS011;41086;46.736;15.666;2023-06-04T00:33:50;17.10;;;10.40;;
55216;SDS011;41086;46.736;15.666;2023-06-04T00:36:17;17.75;;;12.07;;
55216;SDS011;41086;46.736;15.666;2023-06-04T00:38:43;12.80;;;9.82;;
55216;SDS011;41086;46.736;15.666;2023-06-04T00:41:10;13.85;;;9.02;;
55216;SDS011;41086;46.736;15.666;2023-06-04T00:43:37;13.25;;;9.40;;
55216;SDS011;41086;46.736;15.666;2023-06-04T00:46:05;16.20;;;9.50;;
55216;SDS011;41086;46.736;15.666;2023-06-04T00:48:32;15.23;;;9.77;;
55216;SDS011;41086;46.736;15.666;2023-06-04T00:50:59;13.88;;;9.38;;
55216;SDS011;41086;46.736;15.666;2023-06-04T00:53:26;16.25;;;9.40;;
55216;SDS011;41086;46.736;15.666;2023-06-04T00:55:53;14.07;;;9.10;;
55216;SDS011;41086;46.736;15.666;2023-06-04T00:58:20;14.38;;;10.10;;
55216;SDS011;41086;46.736;15.666;2023-06-04T01:00:47;13.60;;;10.13;;
55216;SDS011;41086;46.736;15.666;2023-06-04T01:05:48;12.98;;;9.52;;
55216;SDS011;41086;46.736;15.666;2023-06-04T01:08:20;15.43;;;10.32;;
55216;SDS011;41086;46.736;15.666;2023-06-04T01:10:55;15.38;;;9.60;;
55216;SDS011;41086;46.736;15.666;2023-06-04T01:13:22;16.33;;;10.93;;
55216;SDS011;41086;46.736;15.666;2023-06-04T01:15:51;13.55;;;9.98;;
55216;SDS011;41086;46.736;15.666;2023-06-04T01:18:19;16.00;;;10.25;;
55216;SDS011;41086;46.736;15.666;2023-06-04T01:21:02;11.65;;;9.70;;
55216;SDS011;41086;46.736;15.666;2023-06-04T01:23:40;15.88;;;9.73;;
55216;SDS011;41086;46.736;15.666;2023-06-04T01:26:13;13.80;;;9.00;;
55216;SDS011;41086;46.736;15.666;2023-06-04T01:31:08;13.88;;;9.55;;
55216;SDS011;41086;46.736;15.666;2023-06-04T01:33:35;17.60;;;10.23;;
55216;SDS011;41086;46.736;15.666;2023-06-04T01:36:02;15.27;;;9.60;;
55216;SDS011;41086;46.736;15.666;2023-06-04T01:40:56;13.18;;;9.57;;
55216;SDS011;41086;46.736;15.666;2023-06-04T01:43:28;16.63;;;9.98;;
55216;SDS011;41086;46.736;15.666;2023-06-04T01:45:55;15.45;;;9.77;;
55216;SDS011;41086;46.736;15.666;2023-06-04T01:48:23;13.40;;;10.50;;
55216;SDS011;41086;46.736;15.666;2023-06-04T01:53:16;12.40;;;8.57;;
55216;SDS011;41086;46.736;15.666;2023-06-04T01:55:43;14.73;;;10.10;;
55216;SDS011;41086;46.736;15.666;2023-06-04T01:58:11;14.20;;;8.40;;
55216;SDS011;41086;46.736;15.666;2023-06-04T02:00:38;12.35;;;8.80;;
55216;SDS011;41086;46.736;15.666;2023-06-04T02:03:04;12.10;;;8.52;;
55216;SDS011;41086;46.736;15.666;2023-06-04T02:05:32;20.20;;;10.05;;
55216;SDS011;41086;46.736;15.666;2023-06-04T02:07:59;13.38;;;9.07;;
55216;SDS011;41086;46.736;15.666;2023-06-04T02:10:28;15.07;;;9.45;;
55216;SDS011;41086;46.736;15.666;2023-06-04T02:12:56;14.90;;;8.95;;
55216;SDS011;41086;46.736;15.666;2023-06-04T02:15:25;13.52;;;9.05;;
55216;SDS011;41086;46.736;15.666;2023-06-04T02:17:54;15.00;;;10.48;;
55216;SDS011;41086;46.736;15.666;2023-06-04T02:20:28;14.27;;;10.52;;
55216;SDS011;41086;46.736;15.666;2023-06-04T02:22:55;21.40;;;10.55;;
55216;SDS011;41086;46.736;15.666;2023-06-04T02:25:25;19.50;;;11.73;;
55216;SDS011;41086;46.736;15.666;2023-06-04T02:27:52;18.63;;;10.40;;
55216;SDS011;41086;46.736;15.666;2023-06-04T02:30:18;12.75;;;10.02;;
55216;SDS011;41086;46.736;15.666;2023-06-04T02:32:45;12.05;;;9.77;;
55216;SDS011;41086;46.736;15.666;2023-06-04T02:35:18;14.13;;;10.23;;
55216;SDS011;41086;46.736;15.666;2023-06-04T02:37:45;15.23;;;10.48;;
55216;SDS011;41086;46.736;15.666;2023-06-04T02:40:11;13.77;;;10.70;;
55216;SDS011;41086;46.736;15.666;2023-06-04T02:42:38;16.63;;;10.30;;
55216;SDS011;41086;46.736;15.666;2023-06-04T02:45:05;16.02;;;9.98;;
55216;SDS011;41086;46.736;15.666;2023-06-04T02:47:32;13.30;;;10.65;;
55216;SDS011;41086;46.736;15.666;2023-06-04T02:49:59;16.63;;;12.13;;
55216;SDS011;41086;46.736;15.666;2023-06-04T02:52:26;20.13;;;11.57;;
55216;SDS011;41086;46.736;15.666;2023-06-04T02:54:53;17.08;;;11.40;;
55216;SDS011;41086;46.736;15.666;2023-06-04T02:57:22;14.80;;;11.15;;
55216;SDS011;41086;46.736;15.666;2023-06-04T02:59:49;24.98;;;11.75;;
55216;SDS011;41086;46.736;15.666;2023-06-04T03:02:16;16.73;;;11.52;;
55216;SDS011;41086;46.736;15.666;2023-06-04T03:04:42;18.20;;;12.13;;
55216;SDS011;41086;46.736;15.666;2023-06-04T03:07:10;16.33;;;11.40;;
55216;SDS011;41086;46.736;15.666;2023-06-04T03:09:39;15.35;;;10.63;;
55216;SDS011;41086;46.736;15.666;2023-06-04T03:12:06;18.10;;;11.50;;
55216;SDS011;41086;46.736;15.666;2023-06-04T03:14:33;17.33;;;12.23;;
55216;SDS011;41086;46.736;15.666;2023-06-04T03:17:00;14.88;;;11.27;;
55216;SDS011;41086;46.736;15.666;2023-06-04T03:19:35;16.30;;;10.80;;
55216;SDS011;41086;46.736;15.666;2023-06-04T03:22:05;17.77;;;11.00;;
55216;SDS011;41086;46.736;15.666;2023-06-04T03:24:33;17.45;;;12.65;;
55216;SDS011;41086;46.736;15.666;2023-06-04T03:27:06;15.02;;;11.45;;
55216;SDS011;41086;46.736;15.666;2023-06-04T03:29:34;16.98;;;12.70;;
55216;SDS011;41086;46.736;15.666;2023-06-04T03:32:03;16.52;;;11.57;;
55216;SDS011;41086;46.736;15.666;2023-06-04T03:34:31;23.15;;;11.68;;
55216;SDS011;41086;46.736;15.666;2023-06-04T03:37:01;16.60;;;11.75;;
55216;SDS011;41086;46.736;15.666;2023-06-04T03:39:28;17.02;;;11.43;;
55216;SDS011;41086;46.736;15.666;2023-06-04T03:41:55;19.67;;;11.48;;
55216;SDS011;41086;46.736;15.666;2023-06-04T03:44:23;16.75;;;12.30;;
55216;SDS011;41086;46.736;15.666;2023-06-04T03:46:51;22.02;;;12.15;;
55216;SDS011;41086;46.736;15.666;2023-06-04T03:49:18;19.38;;;12.80;;
55216;SDS011;41086;46.736;15.666;2023-06-04T03:51:47;18.08;;;11.63;;
55216;SDS011;41086;46.736;15.666;2023-06-04T03:54:14;18.05;;;11.75;;
55216;SDS011;41086;46.736;15.666;2023-06-04T03:56:46;20.08;;;11.48;;
55216;SDS011;41086;46.736;15.666;2023-06-04T03:59:13;17.02;;;12.68;;
55216;SDS011;41086;46.736;15.666;2023-06-04T04:04:08;17.77;;;11.75;;
55216;SDS011;41086;46.736;15.666;2023-06-04T04:06:35;15.15;;;12.48;;
55216;SDS011;41086;46.736;15.666;2023-06-04T04:09:03;23.58;;;12.52;;
55216;SDS011;41086;46.736;15.666;2023-06-04T04:11:34;17.42;;;11.48;;
55216;SDS011;41086;46.736;15.666;2023-06-04T04:14:02;18.83;;;12.95;;
55216;SDS011;41086;46.736;15.666;2023-06-04T04:18:56;24.50;;;13.30;;
55216;SDS011;41086;46.736;15.666;2023-06-04T04:21:23;18.42;;;12.98;;
55216;SDS011;41086;46.736;15.666;2023-06-04T04:23:50;16.27;;;11.90;;
55216;SDS011;41086;46.736;15.666;2023-06-04T04:26:19;15.60;;;11.45;;
55216;SDS011;41086;46.736;15.666;2023-06-04T04:28:49;15.82;;;11.63;;
55216;SDS011;41086;46.736;15.666;2023-06-04T04:31:19;20.70;;;12.57;;
55216;SDS011;41086;46.736;15.666;2023-06-04T04:33:48;17.00;;;11.95;;
55216;SDS011;41086;46.736;15.666;2023-06-04T04:36:18;16.08;;;12.18;;
55216;SDS011;41086;46.736;15.666;2023-06-04T04:38:49;18.15;;;12.73;;
55216;SDS011;41086;46.736;15.666;2023-06-04T04:41:24;18.52;;;11.98;;
55216;SDS011;41086;46.736;15.666;2023-06-04T04:43:53;17.70;;;13.15;;
55216;SDS011;41086;46.736;15.666;2023-06-04T04:46:27;15.85;;;11.32;;
55216;SDS011;41086;46.736;15.666;2023-06-04T04:48:54;18.05;;;12.23;;
55216;SDS011;41086;46.736;15.666;2023-06-04T04:51:21;16.50;;;11.90;;
55216;SDS011;41086;46.736;15.666;2023-06-04T04:53:50;15.32;;;11.18;;
55216;SDS011;41086;46.736;15.666;2023-06-04T04:56:17;18.77;;;12.80;;
55216;SDS011;41086;46.736;15.666;2023-06-04T04:58:48;18.05;;;12.43;;
55216;SDS011;41086;46.736;15.666;2023-06-04T05:01:15;14.77;;;10.30;;
55216;SDS011;41086;46.736;15.666;2023-06-04T05:03:42;18.70;;;11.52;;
55216;SDS011;41086;46.736;15.666;2023-06-04T05:06:12;15.50;;;11.43;;
55216;SDS011;41086;46.736;15.666;2023-06-04T05:08:38;11.95;;;10.30;;
55216;SDS011;41086;46.736;15.666;2023-06-04T05:11:06;22.33;;;12.13;;
55216;SDS011;41086;46.736;15.666;2023-06-04T05:13:34;15.25;;;10.02;;
55216;SDS011;41086;46.736;15.666;2023-06-04T05:16:04;18.10;;;10.25;;
55216;SDS011;41086;46.736;15.666;2023-06-04T05:18:39;13.98;;;9.63;;
55216;SDS011;41086;46.736;15.666;2023-06-04T05:21:16;17.23;;;10.88;;
55216;SDS011;41086;46.736;15.666;2023-06-04T05:23:58;16.00;;;9.57;;
55216;SDS011;41086;46.736;15.666;2023-06-04T05:26:28;17.95;;;9.82;;
55216;SDS011;41086;46.736;15.666;2023-06-04T05:28:59;20.55;;;10.35;;
55216;SDS011;41086;46.736;15.666;2023-06-04T05:31:31;15.00;;;9.88;;
55216;SDS011;41086;46.736;15.666;2023-06-04T05:34:02;14.63;;;9.15;;
55216;SDS011;41086;46.736;15.666;2023-06-04T05:36:33;16.25;;;10.32;;
55216;SDS011;41086;46.736;15.666;2023-06-04T05:39:02;15.82;;;10.57;;
55216;SDS011;41086;46.736;15.666;2023-06-04T05:41:38;13.32;;;10.13;;
55216;SDS011;41086;46.736;15.666;2023-06-04T05:44:05;14.75;;;8.93;;
55216;SDS011;41086;46.736;15.666;2023-06-04T05:46:32;12.95;;;9.25;;
55216;SDS011;41086;46.736;15.666;2023-06-04T05:48:59;18.48;;;9.98;;
55216;SDS011;41086;46.736;15.666;2023-06-04T05:51:27;13.05;;;8.93;;
55216;SDS011;41086;46.736;15.666;2023-06-04T05:53:54;15.30;;;8.68;;
55216;SDS011;41086;46.736;15.666;2023-06-04T05:56:21;14.18;;;9.00;;
55216;SDS011;41086;46.736;15.666;2023-06-04T06:01:20;18.00;;;9.75;;
55216;SDS011;41086;46.736;15.666;2023-06-04T06:03:48;14.30;;;9.43;;
55216;SDS011;41086;46.736;15.666;2023-06-04T06:06:16;13.02;;;9.25;;
55216;SDS011;41086;46.736;15.666;2023-06-04T06:08:44;11.00;;;8.50;;
55216;SDS011;41086;46.736;15.666;2023-06-04T06:11:12;18.30;;;10.70;;
55216;SDS011;41086;46.736;15.666;2023-06-04T06:13:39;18.50;;;10.55;;
55216;SDS011;41086;46.736;15.666;2023-06-04T06:16:08;21.85;;;10.63;;
55216;SDS011;41086;46.736;15.666;2023-06-04T06:21:01;14.90;;;9.32;;
55216;SDS011;41086;46.736;15.666;2023-06-04T06:23:28;14.15;;;9.20;;
55216;SDS011;41086;46.736;15.666;2023-06-04T06:28:27;15.65;;;9.43;;
55216;SDS011;41086;46.736;15.666;2023-06-04T06:30:54;14.18;;;9.77;;
55216;SDS011;41086;46.736;15.666;2023-06-04T06:33:21;15.88;;;10.95;;
55216;SDS011;41086;46.736;15.666;2023-06-04T06:35:50;16.02;;;10.18;;
55216;SDS011;41086;46.736;15.666;2023-06-04T06:40:44;16.15;;;9.50;;
55216;SDS011;41086;46.736;15.666;2023-06-04T06:45:38;12.10;;;8.52;;
55216;SDS011;41086;46.736;15.666;2023-06-04T06:48:04;15.15;;;9.73;;
55216;SDS011;41086;46.736;15.666;2023-06-04T06:50:31;14.80;;;9.30;;
55216;SDS011;41086;46.736;15.666;2023-06-04T06:53:02;11.70;;;8.07;;
55216;SDS011;41086;46.736;15.666;2023-06-04T06:55:29;11.85;;;8.50;;
55216;SDS011;41086;46.736;15.666;2023-06-04T07:00:23;11.23;;;7.90;;
55216;SDS011;41086;46.736;15.666;2023-06-04T07:02:50;14.05;;;8.10;;
55216;SDS011;41086;46.736;15.666;2023-06-04T07:05:17;11.75;;;8.23;;
55216;SDS011;41086;46.736;15.666;2023-06-04T07:07:44;12.65;;;8.40;;
55216;SDS011;41086;46.736;15.666;2023-06-04T07:10:11;14.40;;;9.18;;
55216;SDS011;41086;46.736;15.666;2023-06-04T07:12:37;11.30;;;8.13;;
55216;SDS011;41086;46.736;15.666;2023-06-04T07:15:08;11.73;;;8.85;;
55216;SDS011;41086;46.736;15.666;2023-06-04T07:20:03;14.25;;;7.55;;
55216;SDS011;41086;46.736;15.666;2023-06-04T07:22:33;12.23;;;8.35;;
55216;SDS011;41086;46.736;15.666;2023-06-04T07:25:00;10.85;;;7.22;;
55216;SDS011;41086;46.736;15.666;2023-06-04T07:29:54;12.30;;;7.30;;
55216;SDS011;41086;46.736;15.666;2023-06-04T07:32:21;11.98;;;5.78;;
55216;SDS011;41086;46.736;15.666;2023-06-04T07:34:49;13.15;;;6.45;;
55216;SDS011;41086;46.736;15.666;2023-06-04T07:37:16;9.05;;;6.10;;
55216;SDS011;41086;46.736;15.666;2023-06-04T07:39:43;10.90;;;6.50;;
55216;SDS011;41086;46.736;15.666;2023-06-04T07:42:11;10.50;;;7.00;;
55216;SDS011;41086;46.736;15.666;2023-06-04T07:47:04;9.25;;;5.78;;
55216;SDS011;41086;46.736;15.666;2023-06-04T07:49:32;9.13;;;6.10;;
55216;SDS011;41086;46.736;15.666;2023-06-04T07:51:59;13.60;;;6.75;;
55216;SDS011;41086;46.736;15.666;2023-06-04T07:54:26;10.35;;;6.63;;
55216;SDS011;41086;46.736;15.666;2023-06-04T07:59:22;11.82;;;8.15;;
55216;SDS011;41086;46.736;15.666;2023-06-04T08:01:50;12.00;;;6.95;;
55216;SDS011;41086;46.736;15.666;2023-06-04T08:04:20;19.35;;;8.32;;
55216;SDS011;41086;46.736;15.666;2023-06-04T08:06:48;10.80;;;7.60;;
55216;SDS011;41086;46.736;15.666;2023-06-04T08:09:16;11.05;;;7.03;;
55216;SDS011;41086;46.736;15.666;2023-06-04T08:19:07;11.10;;;7.38;;
55216;SDS011;41086;46.736;15.666;2023-06-04T08:21:34;9.77;;;7.57;;
55216;SDS011;41086;46.736;15.666;2023-06-04T08:24:01;15.13;;;7.93;;
55216;SDS011;41086;46.736;15.666;2023-06-04T08:26:29;14.52;;;8.93;;
55216;SDS011;41086;46.736;15.666;2023-06-04T08:28:57;12.68;;;8.15;;
55216;SDS011;41086;46.736;15.666;2023-06-04T08:31:23;11.55;;;7.90;;
55216;SDS011;41086;46.736;15.666;2023-06-04T08:33:51;12.82;;;7.85;;
55216;SDS011;41086;46.736;15.666;2023-06-04T08:36:19;15.50;;;8.35;;
55216;SDS011;41086;46.736;15.666;2023-06-04T08:38:46;16.30;;;8.90;;
55216;SDS011;41086;46.736;15.666;2023-06-04T08:43:55;10.25;;;6.47;;
55216;SDS011;41086;46.736;15.666;2023-06-04T08:46:26;12.63;;;6.88;;
55216;SDS011;41086;46.736;15.666;2023-06-04T08:48:56;11.45;;;7.57;;
55216;SDS011;41086;46.736;15.666;2023-06-04T08:51:31;11.13;;;7.10;;
55216;SDS011;41086;46.736;15.666;2023-06-04T08:54:07;12.32;;;7.18;;
55216;SDS011;41086;46.736;15.666;2023-06-04T08:56:36;8.95;;;6.68;;
55216;SDS011;41086;46.736;15.666;2023-06-04T08:59:06;15.73;;;8.35;;
55216;SDS011;41086;46.736;15.666;2023-06-04T09:01:37;9.02;;;6.03;;
55216;SDS011;41086;46.736;15.666;2023-06-04T09:04:06;12.77;;;6.80;;
55216;SDS011;41086;46.736;15.666;2023-06-04T09:06:39;9.10;;;6.63;;
55216;SDS011;41086;46.736;15.666;2023-06-04T09:09:09;9.80;;;6.97;;
55216;SDS011;41086;46.736;15.666;2023-06-04T09:11:41;9.13;;;6.55;;
55216;SDS011;41086;46.736;15.666;2023-06-04T09:14:14;11.00;;;7.65;;
55216;SDS011;41086;46.736;15.666;2023-06-04T09:16:48;12.85;;;6.78;;
55216;SDS011;41086;46.736;15.666;2023-06-04T09:19:19;9.38;;;7.18;;
55216;SDS011;41086;46.736;15.666;2023-06-04T09:24:20;11.35;;;8.20;;
55216;SDS011;41086;46.736;15.666;2023-06-04T09:26:49;10.75;;;6.75;;
55216;SDS011;41086;46.736;15.666;2023-06-04T09:29:16;10.82;;;7.00;;
55216;SDS011;41086;46.736;15.666;2023-06-04T09:31:44;10.50;;;7.25;;
55216;SDS011;41086;46.736;15.666;2023-06-04T09:34:13;9.52;;;6.68;;
55216;SDS011;41086;46.736;15.666;2023-06-04T09:36:41;13.30;;;7.15;;
55216;SDS011;41086;46.736;15.666;2023-06-04T09:39:15;12.98;;;7.50;;
55216;SDS011;41086;46.736;15.666;2023-06-04T09:41:43;14.32;;;7.10;;
55216;SDS011;41086;46.736;15.666;2023-06-04T09:44:10;12.90;;;7.60;;
55216;SDS011;41086;46.736;15.666;2023-06-04T09:46:39;11.10;;;6.38;;
55216;SDS011;41086;46.736;15.666;2023-06-04T09:49:06;9.95;;;6.10;;
55216;SDS011;41086;46.736;15.666;2023-06-04T09:51:33;6.93;;;5.47;;
55216;SDS011;41086;46.736;15.666;2023-06-04T09:54:00;11.23;;;6.57;;
55216;SDS011;41086;46.736;15.666;2023-06-04T09:56:29;11.43;;;6.30;;
55216;SDS011;41086;46.736;15.666;2023-06-04T09:58:59;8.98;;;5.93;;
55216;SDS011;41086;46.736;15.666;2023-06-04T10:01:28;9.93;;;7.25;;
55216;SDS011;41086;46.736;15.666;2023-06-04T10:03:57;8.13;;;5.90;;
55216;SDS011;41086;46.736;15.666;2023-06-04T10:06:32;13.20;;;5.90;;
55216;SDS011;41086;46.736;15.666;2023-06-04T10:09:07;8.20;;;5.63;;
55216;SDS011;41086;46.736;15.666;2023-06-04T10:11:43;9.45;;;5.90;;
55216;SDS011;41086;46.736;15.666;2023-06-04T10:14:21;8.50;;;5.20;;
55216;SDS011;41086;46.736;15.666;2023-06-04T10:16:51;11.52;;;6.15;;
55216;SDS011;41086;46.736;15.666;2023-06-04T10:19:20;9.20;;;5.68;;
55216;SDS011;41086;46.736;15.666;2023-06-04T10:21:47;10.80;;;5.70;;
55216;SDS011;41086;46.736;15.666;2023-06-04T10:24:14;7.72;;;4.57;;
55216;SDS011;41086;46.736;15.666;2023-06-04T10:26:42;9.02;;;5.45;;
55216;SDS011;41086;46.736;15.666;2023-06-04T10:29:10;8.70;;;5.07;;
55216;SDS011;41086;46.736;15.666;2023-06-04T10:31:40;7.68;;;4.65;;
55216;SDS011;41086;46.736;15.666;2023-06-04T10:34:08;9.20;;;5.07;;
55216;SDS011;41086;46.736;15.666;2023-06-04T10:36:42;8.32;;;5.85;;
55216;SDS011;41086;46.736;15.666;2023-06-04T10:39:10;8.88;;;4.68;;
55216;SDS011;41086;46.736;15.666;2023-06-04T10:41:37;11.70;;;5.45;;
55216;SDS011;41086;46.736;15.666;2023-06-04T10:44:04;7.97;;;5.32;;
55216;SDS011;41086;46.736;15.666;2023-06-04T10:46:38;9.07;;;4.45;;
55216;SDS011;41086;46.736;15.666;2023-06-04T10:49:08;10.05;;;5.00;;
55216;SDS011;41086;46.736;15.666;2023-06-04T10:51:37;10.55;;;5.72;;
55216;SDS011;41086;46.736;15.666;2023-06-04T10:54:04;8.15;;;5.80;;
55216;SDS011;41086;46.736;15.666;2023-06-04T10:56:32;8.02;;;5.57;;
55216;SDS011;41086;46.736;15.666;2023-06-04T10:59:16;6.80;;;5.93;;
55216;SDS011;41086;46.736;15.666;2023-06-04T11:01:44;12.93;;;5.78;;
55216;SDS011;41086;46.736;15.666;2023-06-04T11:04:45;13.95;;;5.30;;
55216;SDS011;41086;46.736;15.666;2023-06-04T11:07:05;8.80;;;6.05;;
55216;SDS011;41086;46.736;15.666;2023-06-04T11:09:37;11.18;;;6.55;;
55216;SDS011;41086;46.736;15.666;2023-06-04T11:12:14;8.20;;;5.82;;
55216;SDS011;41086;46.736;15.666;2023-06-04T11:14:41;11.20;;;6.60;;
55216;SDS011;41086;46.736;15.666;2023-06-04T11:17:19;10.25;;;6.32;;
55216;SDS011;41086;46.736;15.666;2023-06-04T11:19:46;9.52;;;5.75;;
55216;SDS011;41086;46.736;15.666;2023-06-04T11:22:13;10.23;;;6.32;;
55216;SDS011;41086;46.736;15.666;2023-06-04T11:24:39;9.60;;;6.72;;
55216;SDS011;41086;46.736;15.666;2023-06-04T11:27:06;8.30;;;5.05;;
55216;SDS011;41086;46.736;15.666;2023-06-04T11:29:48;10.93;;;6.68;;
55216;SDS011;41086;46.736;15.666;2023-06-04T11:32:23;18.48;;;13.40;;
55216;SDS011;41086;46.736;15.666;2023-06-04T11:34:50;10.18;;;5.97;;
55216;SDS011;41086;46.736;15.666;2023-06-04T11:37:17;9.68;;;5.82;;
55216;SDS011;41086;46.736;15.666;2023-06-04T11:39:44;9.75;;;6.00;;
55216;SDS011;41086;46.736;15.666;2023-06-04T11:42:11;8.90;;;5.90;;
55216;SDS011;41086;46.736;15.666;2023-06-04T11:44:39;12.40;;;6.30;;
55216;SDS011;41086;46.736;15.666;2023-06-04T11:47:11;10.70;;;6.15;;
55216;SDS011;41086;46.736;15.666;2023-06-04T11:49:38;10.73;;;6.50;;
55216;SDS011;41086;46.736;15.666;2023-06-04T11:52:05;7.75;;;5.80;;
55216;SDS011;41086;46.736;15.666;2023-06-04T11:54:32;11.23;;;6.60;;
55216;SDS011;41086;46.736;15.666;2023-06-04T11:57:03;10.38;;;5.95;;
55216;SDS011;41086;46.736;15.666;2023-06-04T11:59:31;11.35;;;5.88;;
55216;SDS011;41086;46.736;15.666;2023-06-04T12:01:58;9.43;;;4.85;;
55216;SDS011;41086;46.736;15.666;2023-06-04T12:04:29;11.35;;;5.88;;
55216;SDS011;41086;46.736;15.666;2023-06-04T12:06:57;9.77;;;6.18;;
55216;SDS011;41086;46.736;15.666;2023-06-04T12:09:28;9.38;;;5.75;;
55216;SDS011;41086;46.736;15.666;2023-06-04T12:11:58;10.73;;;6.60;;
55216;SDS011;41086;46.736;15.666;2023-06-04T12:14:27;9.25;;;6.40;;
55216;SDS011;41086;46.736;15.666;2023-06-04T12:16:56;9.70;;;6.25;;
55216;SDS011;41086;46.736;15.666;2023-06-04T12:19:27;10.35;;;6.03;;
55216;SDS011;41086;46.736;15.666;2023-06-04T12:22:04;11.13;;;7.03;;
55216;SDS011;41086;46.736;15.666;2023-06-04T12:24:32;8.00;;;6.57;;
55216;SDS011;41086;46.736;15.666;2023-06-04T12:29:33;7.65;;;6.32;;
55216;SDS011;41086;46.736;15.666;2023-06-04T12:32:10;16.40;;;7.22;;
55216;SDS011;41086;46.736;15.666;2023-06-04T12:34:40;8.98;;;6.60;;
55216;SDS011;41086;46.736;15.666;2023-06-04T12:37:07;8.20;;;7.03;;
55216;SDS011;41086;46.736;15.666;2023-06-04T12:39:35;17.00;;;7.38;;
55216;SDS011;41086;46.736;15.666;2023-06-04T12:42:05;9.18;;;6.60;;
55216;SDS011;41086;46.736;15.666;2023-06-04T12:44:33;10.50;;;7.20;;
55216;SDS011;41086;46.736;15.666;2023-06-04T12:47:01;9.43;;;5.75;;
55216;SDS011;41086;46.736;15.666;2023-06-04T12:49:29;7.55;;;6.50;;
55216;SDS011;41086;46.736;15.666;2023-06-04T12:51:56;11.20;;;6.53;;
55216;SDS011;41086;46.736;15.666;2023-06-04T12:54:23;10.70;;;6.10;;
55216;SDS011;41086;46.736;15.666;2023-06-04T12:56:49;8.68;;;6.13;;
55216;SDS011;41086;46.736;15.666;2023-06-04T12:59:16;13.77;;;6.40;;
55216;SDS011;41086;46.736;15.666;2023-06-04T13:01:43;9.63;;;5.78;;
55216;SDS011;41086;46.736;15.666;2023-06-04T13:04:10;8.55;;;6.75;;
55216;SDS011;41086;46.736;15.666;2023-06-04T13:06:37;10.50;;;6.18;;
55216;SDS011;41086;46.736;15.666;2023-06-04T13:09:04;13.30;;;6.95;;
55216;SDS011;41086;46.736;15.666;2023-06-04T13:11:41;9.68;;;6.38;;
55216;SDS011;41086;46.736;15.666;2023-06-04T13:14:09;16.98;;;6.20;;
55216;SDS011;41086;46.736;15.666;2023-06-04T13:16:39;8.73;;;5.93;;
55216;SDS011;41086;46.736;15.666;2023-06-04T13:19:07;11.13;;;5.45;;
55216;SDS011;41086;46.736;15.666;2023-06-04T13:21:34;27.92;;;6.88;;
55216;SDS011;41086;46.736;15.666;2023-06-04T13:24:02;8.57;;;5.90;;
55216;SDS011;41086;46.736;15.666;2023-06-04T13:26:28;21.02;;;13.75;;
55216;SDS011;41086;46.736;15.666;2023-06-04T13:28:55;15.32;;;6.38;;
55216;SDS011;41086;46.736;15.666;2023-06-04T13:31:22;11.30;;;6.55;;
55216;SDS011;41086;46.736;15.666;2023-06-04T13:33:49;7.07;;;6.25;;
55216;SDS011;41086;46.736;15.666;2023-06-04T13:36:15;13.57;;;6.70;;
55216;SDS011;41086;46.736;15.666;2023-06-04T13:38:42;13.85;;;6.65;;
55216;SDS011;41086;46.736;15.666;2023-06-04T13:41:09;16.17;;;6.80;;
55216;SDS011;41086;46.736;15.666;2023-06-04T13:43:36;33.85;;;6.55;;
55216;SDS011;41086;46.736;15.666;2023-06-04T13:46:03;11.38;;;5.60;;
55216;SDS011;41086;46.736;15.666;2023-06-04T13:48:31;8.80;;;4.82;;
55216;SDS011;41086;46.736;15.666;2023-06-04T13:53:24;7.68;;;4.38;;
55216;SDS011;41086;46.736;15.666;2023-06-04T13:58:27;7.63;;;3.30;;
55216;SDS011;41086;46.736;15.666;2023-06-04T14:00:53;11.20;;;6.50;;
55216;SDS011;41086;46.736;15.666;2023-06-04T14:03:21;7.60;;;3.67;;
55216;SDS011;41086;46.736;15.666;2023-06-04T14:05:48;15.07;;;5.55;;
55216;SDS011;41086;46.736;15.666;2023-06-04T14:08:15;18.38;;;7.85;;
55216;SDS011;41086;46.736;15.666;2023-06-04T14:10:42;19.40;;;5.88;;
55216;SDS011;41086;46.736;15.666;2023-06-04T14:13:09;11.55;;;4.18;;
55216;SDS011;41086;46.736;15.666;2023-06-04T14:15:37;8.75;;;4.63;;
55216;SDS011;41086;46.736;15.666;2023-06-04T14:18:04;12.40;;;4.32;;
55216;SDS011;41086;46.736;15.666;2023-06-04T14:20:31;9.73;;;4.90;;
55216;SDS011;41086;46.736;15.666;2023-06-04T14:22:58;10.98;;;4.72;;
55216;SDS011;41086;46.736;15.666;2023-06-04T14:25:26;11.90;;;6.50;;
55216;SDS011;41086;46.736;15.666;2023-06-04T14:27:53;10.70;;;6.45;;
55216;SDS011;41086;46.736;15.666;2023-06-04T14:32:47;11.70;;;5.53;;
55216;SDS011;41086;46.736;15.666;2023-06-04T14:35:14;9.40;;;4.93;;
55216;SDS011;41086;46.736;15.666;2023-06-04T14:40:08;10.25;;;5.68;;
55216;SDS011;41086;46.736;15.666;2023-06-04T14:42:35;12.57;;;7.07;;
55216;SDS011;41086;46.736;15.666;2023-06-04T14:45:02;12.35;;;8.27;;
55216;SDS011;41086;46.736;15.666;2023-06-04T14:47:29;16.63;;;11.65;;
55216;SDS011;41086;46.736;15.666;2023-06-04T14:49:56;17.98;;;13.30;;
55216;SDS011;41086;46.736;15.666;2023-06-04T14:52:23;19.77;;;12.52;;
55216;SDS011;41086;46.736;15.666;2023-06-04T14:54:50;20.67;;;13.00;;
55216;SDS011;41086;46.736;15.666;2023-06-04T14:57:20;14.00;;;12.48;;
55216;SDS011;41086;46.736;15.666;2023-06-04T14:59:47;14.70;;;9.95;;
55216;SDS011;41086;46.736;15.666;2023-06-04T15:02:14;14.52;;;8.18;;
55216;SDS011;41086;46.736;15.666;2023-06-04T15:04:46;9.70;;;7.35;;
55216;SDS011;41086;46.736;15.666;2023-06-04T15:07:13;10.25;;;6.75;;
55216;SDS011;41086;46.736;15.666;2023-06-04T15:09:40;9.63;;;7.20;;
55216;SDS011;41086;46.736;15.666;2023-06-04T15:12:07;9.55;;;7.30;;
55216;SDS011;41086;46.736;15.666;2023-06-04T15:17:00;11.93;;;8.93;;
55216;SDS011;41086;46.736;15.666;2023-06-04T15:19:27;11.93;;;10.05;;
55216;SDS011;41086;46.736;15.666;2023-06-04T15:21:54;17.10;;;11.30;;
55216;SDS011;41086;46.736;15.666;2023-06-04T15:24:21;14.63;;;11.93;;
55216;SDS011;41086;46.736;15.666;2023-06-04T15:26:48;17.90;;;13.43;;
55216;SDS011;41086;46.736;15.666;2023-06-04T15:29:16;13.05;;;10.13;;
55216;SDS011;41086;46.736;15.666;2023-06-04T15:34:10;10.70;;;9.25;;
55216;SDS011;41086;46.736;15.666;2023-06-04T15:36:38;19.17;;;10.82;;
55216;SDS011;41086;46.736;15.666;2023-06-04T15:39:05;13.32;;;7.95;;
55216;SDS011;41086;46.736;15.666;2023-06-04T15:41:32;19.77;;;10.52;;
55216;SDS011;41086;46.736;15.666;2023-06-04T15:46:29;11.27;;;8.23;;